sensor_id;sensor_type;location;lat;lon;timestamp;P1;durP1;ratioP1;P2;durP2;ratioP2
76292;SDS011;67256;51.154;4.164;2023-07-20T00:01:15;12.95;;;4.45;;
76292;SDS011;67256;51.154;4.164;2023-07-20T00:03:41;14.57;;;3.92;;
76292;SDS011;67256;51.154;4.164;2023-07-20T00:06:06;10.13;;;4.00;;
76292;SDS011;67256;51.154;4.164;2023-07-20T00:08:32;15.00;;;4.72;;
76292;SDS011;67256;51.154;4.164;2023-07-20T00:10:58;13.93;;;4.10;;
76292;SDS011;67256;51.154;4.164;2023-07-20T00:13:24;11.57;;;3.80;;
76292;SDS011;67256;51.154;4.164;2023-07-20T00:15:51;8.70;;;4.13;;
76292;SDS011;67256;51.154;4.164;2023-07-20T00:18:17;14.60;;;3.80;;
76292;SDS011;67256;51.154;4.164;2023-07-20T00:20:46;14.02;;;4.05;;
76292;SDS011;67256;51.154;4.164;2023-07-20T00:23:12;9.38;;;3.67;;
76292;SDS011;67256;51.154;4.164;2023-07-20T00:25:38;12.50;;;3.78;;
76292;SDS011;67256;51.154;4.164;2023-07-20T00:28:04;9.68;;;4.60;;
76292;SDS011;67256;51.154;4.164;2023-07-20T00:30:29;10.07;;;4.07;;
76292;SDS011;67256;51.154;4.164;2023-07-20T00:32:55;14.55;;;4.22;;
76292;SDS011;67256;51.154;4.164;2023-07-20T00:35:21;15.05;;;4.75;;
76292;SDS011;67256;51.154;4.164;2023-07-20T00:37:46;14.20;;;4.50;;
76292;SDS011;67256;51.154;4.164;2023-07-20T00:40:12;10.20;;;4.07;;
76292;SDS011;67256;51.154;4.164;2023-07-20T00:42:38;13.85;;;4.10;;
76292;SDS011;67256;51.154;4.164;2023-07-20T00:45:04;14.25;;;3.90;;
76292;SDS011;67256;51.154;4.164;2023-07-20T00:47:31;11.20;;;4.50;;
76292;SDS011;67256;51.154;4.164;2023-07-20T00:49:57;9.65;;;3.88;;
76292;SDS011;67256;51.154;4.164;2023-07-20T00:52:23;10.65;;;4.20;;
76292;SDS011;67256;51.154;4.164;2023-07-20T00:54:54;13.70;;;4.18;;
76292;SDS011;67256;51.154;4.164;2023-07-20T00:57:21;15.02;;;4.57;;
76292;SDS011;67256;51.154;4.164;2023-07-20T00:59:49;11.27;;;4.28;;
76292;SDS011;67256;51.154;4.164;2023-07-20T01:02:14;7.97;;;3.95;;
76292;SDS011;67256;51.154;4.164;2023-07-20T01:04:41;11.20;;;3.85;;
76292;SDS011;67256;51.154;4.164;2023-07-20T01:15:04;10.65;;;4.03;;
76292;SDS011;67256;51.154;4.164;2023-07-20T01:17:32;14.35;;;4.60;;
76292;SDS011;67256;51.154;4.164;2023-07-20T01:19:58;12.15;;;4.68;;
76292;SDS011;67256;51.154;4.164;2023-07-20T01:25:34;9.90;;;5.03;;
76292;SDS011;67256;51.154;4.164;2023-07-20T01:28:26;9.60;;;4.78;;
76292;SDS011;67256;51.154;4.164;2023-07-20T01:31:15;8.32;;;5.18;;
76292;SDS011;67256;51.154;4.164;2023-07-20T01:33:42;10.40;;;5.68;;
76292;SDS011;67256;51.154;4.164;2023-07-20T01:36:08;11.82;;;5.03;;
76292;SDS011;67256;51.154;4.164;2023-07-20T01:38:35;8.10;;;5.03;;
76292;SDS011;67256;51.154;4.164;2023-07-20T01:41:02;15.77;;;5.03;;
76292;SDS011;67256;51.154;4.164;2023-07-20T01:43:28;11.75;;;5.82;;
76292;SDS011;67256;51.154;4.164;2023-07-20T01:45:54;12.70;;;5.05;;
76292;SDS011;67256;51.154;4.164;2023-07-20T01:48:20;9.63;;;5.28;;
76292;SDS011;67256;51.154;4.164;2023-07-20T01:50:45;11.55;;;5.18;;
76292;SDS011;67256;51.154;4.164;2023-07-20T01:53:11;9.35;;;5.00;;
76292;SDS011;67256;51.154;4.164;2023-07-20T01:55:37;12.68;;;5.60;;
76292;SDS011;67256;51.154;4.164;2023-07-20T01:58:02;10.57;;;6.05;;
76292;SDS011;67256;51.154;4.164;2023-07-20T02:00:28;16.30;;;5.85;;
76292;SDS011;67256;51.154;4.164;2023-07-20T02:02:54;12.18;;;5.55;;
76292;SDS011;67256;51.154;4.164;2023-07-20T02:05:20;14.93;;;6.07;;
76292;SDS011;67256;51.154;4.164;2023-07-20T02:07:46;11.20;;;5.40;;
76292;SDS011;67256;51.154;4.164;2023-07-20T02:10:11;11.05;;;5.47;;
76292;SDS011;67256;51.154;4.164;2023-07-20T02:12:38;9.18;;;5.15;;
76292;SDS011;67256;51.154;4.164;2023-07-20T02:15:03;10.77;;;5.35;;
76292;SDS011;67256;51.154;4.164;2023-07-20T02:17:29;10.25;;;5.38;;
76292;SDS011;67256;51.154;4.164;2023-07-20T02:19:56;13.23;;;6.40;;
76292;SDS011;67256;51.154;4.164;2023-07-20T02:22:24;14.18;;;6.38;;
76292;SDS011;67256;51.154;4.164;2023-07-20T02:24:50;11.10;;;5.43;;
76292;SDS011;67256;51.154;4.164;2023-07-20T02:27:16;11.40;;;5.43;;
76292;SDS011;67256;51.154;4.164;2023-07-20T02:29:42;8.45;;;5.28;;
76292;SDS011;67256;51.154;4.164;2023-07-20T02:32:08;13.10;;;5.63;;
76292;SDS011;67256;51.154;4.164;2023-07-20T02:34:35;9.82;;;5.30;;
76292;SDS011;67256;51.154;4.164;2023-07-20T02:37:01;14.73;;;5.75;;
76292;SDS011;67256;51.154;4.164;2023-07-20T02:39:27;11.00;;;5.72;;
76292;SDS011;67256;51.154;4.164;2023-07-20T02:41:53;13.07;;;6.20;;
76292;SDS011;67256;51.154;4.164;2023-07-20T02:44:19;10.82;;;5.60;;
76292;SDS011;67256;51.154;4.164;2023-07-20T02:46:45;10.70;;;5.68;;
76292;SDS011;67256;51.154;4.164;2023-07-20T02:49:11;9.05;;;5.47;;
76292;SDS011;67256;51.154;4.164;2023-07-20T02:51:37;10.70;;;5.53;;
76292;SDS011;67256;51.154;4.164;2023-07-20T02:54:03;8.75;;;5.50;;
76292;SDS011;67256;51.154;4.164;2023-07-20T02:56:29;13.05;;;6.32;;
76292;SDS011;67256;51.154;4.164;2023-07-20T02:58:55;8.68;;;5.13;;
76292;SDS011;67256;51.154;4.164;2023-07-20T03:01:20;8.05;;;5.72;;
76292;SDS011;67256;51.154;4.164;2023-07-20T03:03:46;10.10;;;5.22;;
76292;SDS011;67256;51.154;4.164;2023-07-20T03:06:15;14.48;;;6.50;;
76292;SDS011;67256;51.154;4.164;2023-07-20T03:08:42;7.75;;;5.63;;
76292;SDS011;67256;51.154;4.164;2023-07-20T03:11:12;10.90;;;5.65;;
76292;SDS011;67256;51.154;4.164;2023-07-20T03:13:41;11.73;;;6.40;;
76292;SDS011;67256;51.154;4.164;2023-07-20T03:16:08;10.43;;;6.40;;
76292;SDS011;67256;51.154;4.164;2023-07-20T03:18:39;9.85;;;6.13;;
76292;SDS011;67256;51.154;4.164;2023-07-20T03:21:06;10.75;;;6.25;;
76292;SDS011;67256;51.154;4.164;2023-07-20T03:23:32;11.00;;;6.32;;
76292;SDS011;67256;51.154;4.164;2023-07-20T03:25:58;10.90;;;7.03;;
76292;SDS011;67256;51.154;4.164;2023-07-20T03:28:23;9.52;;;6.55;;
76292;SDS011;67256;51.154;4.164;2023-07-20T03:30:53;10.23;;;6.43;;
76292;SDS011;67256;51.154;4.164;2023-07-20T03:33:24;9.88;;;6.28;;
76292;SDS011;67256;51.154;4.164;2023-07-20T03:35:51;9.65;;;6.28;;
76292;SDS011;67256;51.154;4.164;2023-07-20T03:38:16;10.35;;;6.43;;
76292;SDS011;67256;51.154;4.164;2023-07-20T03:40:55;9.45;;;6.95;;
76292;SDS011;67256;51.154;4.164;2023-07-20T03:43:23;8.75;;;6.00;;
76292;SDS011;67256;51.154;4.164;2023-07-20T03:45:51;9.90;;;6.13;;
76292;SDS011;67256;51.154;4.164;2023-07-20T03:48:17;9.45;;;5.78;;
76292;SDS011;67256;51.154;4.164;2023-07-20T03:50:45;7.85;;;5.72;;
76292;SDS011;67256;51.154;4.164;2023-07-20T03:53:12;8.02;;;5.93;;
76292;SDS011;67256;51.154;4.164;2023-07-20T03:55:38;10.95;;;6.10;;
76292;SDS011;67256;51.154;4.164;2023-07-20T03:58:05;10.65;;;5.82;;
76292;SDS011;67256;51.154;4.164;2023-07-20T04:00:31;8.30;;;5.57;;
76292;SDS011;67256;51.154;4.164;2023-07-20T04:02:57;10.52;;;5.95;;
76292;SDS011;67256;51.154;4.164;2023-07-20T04:05:24;8.63;;;5.93;;
76292;SDS011;67256;51.154;4.164;2023-07-20T04:07:50;10.35;;;5.82;;
76292;SDS011;67256;51.154;4.164;2023-07-20T04:10:16;8.00;;;5.72;;
76292;SDS011;67256;51.154;4.164;2023-07-20T04:12:43;8.20;;;5.10;;
76292;SDS011;67256;51.154;4.164;2023-07-20T04:15:09;7.95;;;5.20;;
76292;SDS011;67256;51.154;4.164;2023-07-20T04:17:35;10.82;;;5.28;;
76292;SDS011;67256;51.154;4.164;2023-07-20T04:20:01;8.85;;;5.22;;
76292;SDS011;67256;51.154;4.164;2023-07-20T04:22:28;10.93;;;5.97;;
76292;SDS011;67256;51.154;4.164;2023-07-20T04:24:55;8.10;;;5.10;;
76292;SDS011;67256;51.154;4.164;2023-07-20T04:27:21;7.18;;;4.95;;
76292;SDS011;67256;51.154;4.164;2023-07-20T04:29:47;8.45;;;4.70;;
76292;SDS011;67256;51.154;4.164;2023-07-20T04:32:12;6.97;;;3.80;;
76292;SDS011;67256;51.154;4.164;2023-07-20T04:34:38;11.80;;;4.20;;
76292;SDS011;67256;51.154;4.164;2023-07-20T04:37:04;9.50;;;3.92;;
76292;SDS011;67256;51.154;4.164;2023-07-20T04:39:30;8.85;;;4.38;;
76292;SDS011;67256;51.154;4.164;2023-07-20T04:41:56;6.95;;;3.42;;
76292;SDS011;67256;51.154;4.164;2023-07-20T04:44:22;6.85;;;4.32;;
76292;SDS011;67256;51.154;4.164;2023-07-20T04:46:47;6.30;;;3.80;;
76292;SDS011;67256;51.154;4.164;2023-07-20T04:49:13;7.72;;;4.07;;
76292;SDS011;67256;51.154;4.164;2023-07-20T04:51:39;6.78;;;3.80;;
76292;SDS011;67256;51.154;4.164;2023-07-20T04:54:05;5.95;;;3.72;;
76292;SDS011;67256;51.154;4.164;2023-07-20T04:56:30;7.82;;;3.75;;
76292;SDS011;67256;51.154;4.164;2023-07-20T04:58:56;4.00;;;3.33;;
76292;SDS011;67256;51.154;4.164;2023-07-20T05:01:22;5.78;;;3.03;;
76292;SDS011;67256;51.154;4.164;2023-07-20T05:03:48;6.00;;;3.15;;
76292;SDS011;67256;51.154;4.164;2023-07-20T05:06:15;5.85;;;3.25;;
76292;SDS011;67256;51.154;4.164;2023-07-20T05:08:40;3.55;;;2.70;;
76292;SDS011;67256;51.154;4.164;2023-07-20T05:11:06;4.55;;;2.88;;
76292;SDS011;67256;51.154;4.164;2023-07-20T05:13:33;4.65;;;2.72;;
76292;SDS011;67256;51.154;4.164;2023-07-20T05:15:58;4.25;;;2.13;;
76292;SDS011;67256;51.154;4.164;2023-07-20T05:18:24;5.65;;;2.45;;
76292;SDS011;67256;51.154;4.164;2023-07-20T05:20:50;4.25;;;2.30;;
76292;SDS011;67256;51.154;4.164;2023-07-20T05:23:19;3.70;;;2.40;;
76292;SDS011;67256;51.154;4.164;2023-07-20T05:25:48;5.85;;;3.85;;
76292;SDS011;67256;51.154;4.164;2023-07-20T05:28:21;4.10;;;2.05;;
76292;SDS011;67256;51.154;4.164;2023-07-20T05:30:47;4.80;;;2.40;;
76292;SDS011;67256;51.154;4.164;2023-07-20T05:33:13;4.97;;;2.40;;
76292;SDS011;67256;51.154;4.164;2023-07-20T05:35:39;4.28;;;2.10;;
76292;SDS011;67256;51.154;4.164;2023-07-20T05:38:05;6.53;;;2.38;;
76292;SDS011;67256;51.154;4.164;2023-07-20T05:40:31;3.70;;;1.95;;
76292;SDS011;67256;51.154;4.164;2023-07-20T05:42:57;4.93;;;2.15;;
76292;SDS011;67256;51.154;4.164;2023-07-20T05:45:25;3.88;;;2.40;;
76292;SDS011;67256;51.154;4.164;2023-07-20T05:47:51;5.15;;;2.65;;
76292;SDS011;67256;51.154;4.164;2023-07-20T05:50:17;2.58;;;1.70;;
76292;SDS011;67256;51.154;4.164;2023-07-20T05:52:42;3.33;;;1.80;;
76292;SDS011;67256;51.154;4.164;2023-07-20T05:55:08;2.75;;;1.70;;
76292;SDS011;67256;51.154;4.164;2023-07-20T05:57:34;3.85;;;2.03;;
76292;SDS011;67256;51.154;4.164;2023-07-20T06:00:00;3.05;;;1.30;;
76292;SDS011;67256;51.154;4.164;2023-07-20T06:02:26;3.10;;;1.42;;
76292;SDS011;67256;51.154;4.164;2023-07-20T06:04:51;3.35;;;1.50;;
76292;SDS011;67256;51.154;4.164;2023-07-20T06:07:17;2.47;;;1.10;;
76292;SDS011;67256;51.154;4.164;2023-07-20T06:09:43;1.40;;;1.30;;
76292;SDS011;67256;51.154;4.164;2023-07-20T06:12:08;2.88;;;1.98;;
76292;SDS011;67256;51.154;4.164;2023-07-20T06:14:34;2.28;;;1.25;;
76292;SDS011;67256;51.154;4.164;2023-07-20T06:17:00;2.03;;;1.48;;
76292;SDS011;67256;51.154;4.164;2023-07-20T06:19:26;2.42;;;1.00;;
76292;SDS011;67256;51.154;4.164;2023-07-20T06:21:52;4.28;;;1.00;;
76292;SDS011;67256;51.154;4.164;2023-07-20T06:24:18;1.58;;;0.95;;
76292;SDS011;67256;51.154;4.164;2023-07-20T06:26:44;3.90;;;0.85;;
76292;SDS011;67256;51.154;4.164;2023-07-20T06:29:10;2.00;;;0.85;;
76292;SDS011;67256;51.154;4.164;2023-07-20T06:31:35;1.05;;;0.70;;
76292;SDS011;67256;51.154;4.164;2023-07-20T06:34:02;3.25;;;1.00;;
76292;SDS011;67256;51.154;4.164;2023-07-20T06:36:28;2.35;;;0.60;;
76292;SDS011;67256;51.154;4.164;2023-07-20T06:38:54;2.33;;;0.90;;
76292;SDS011;67256;51.154;4.164;2023-07-20T06:41:20;2.60;;;0.90;;
76292;SDS011;67256;51.154;4.164;2023-07-20T06:43:46;1.50;;;0.77;;
76292;SDS011;67256;51.154;4.164;2023-07-20T06:46:12;3.22;;;1.08;;
76292;SDS011;67256;51.154;4.164;2023-07-20T06:48:38;2.25;;;0.60;;
76292;SDS011;67256;51.154;4.164;2023-07-20T06:51:04;2.13;;;1.02;;
76292;SDS011;67256;51.154;4.164;2023-07-20T06:53:30;3.88;;;1.10;;
76292;SDS011;67256;51.154;4.164;2023-07-20T06:55:55;1.58;;;1.05;;
76292;SDS011;67256;51.154;4.164;2023-07-20T06:58:24;2.35;;;0.70;;
76292;SDS011;67256;51.154;4.164;2023-07-20T07:00:51;1.08;;;0.57;;
76292;SDS011;67256;51.154;4.164;2023-07-20T07:03:17;2.42;;;0.70;;
76292;SDS011;67256;51.154;4.164;2023-07-20T07:05:44;2.33;;;0.93;;
76292;SDS011;67256;51.154;4.164;2023-07-20T07:08:10;1.52;;;0.88;;
76292;SDS011;67256;51.154;4.164;2023-07-20T07:10:37;1.42;;;0.75;;
76292;SDS011;67256;51.154;4.164;2023-07-20T07:13:03;2.40;;;0.88;;
76292;SDS011;67256;51.154;4.164;2023-07-20T07:15:29;1.88;;;0.68;;
76292;SDS011;67256;51.154;4.164;2023-07-20T07:17:55;4.57;;;0.85;;
76292;SDS011;67256;51.154;4.164;2023-07-20T07:20:21;1.50;;;0.68;;
76292;SDS011;67256;51.154;4.164;2023-07-20T07:22:47;0.80;;;0.50;;
76292;SDS011;67256;51.154;4.164;2023-07-20T07:25:15;1.58;;;0.45;;
76292;SDS011;67256;51.154;4.164;2023-07-20T07:27:41;0.80;;;0.40;;
76292;SDS011;67256;51.154;4.164;2023-07-20T07:30:07;1.48;;;0.65;;
76292;SDS011;67256;51.154;4.164;2023-07-20T07:32:33;2.47;;;0.77;;
76292;SDS011;67256;51.154;4.164;2023-07-20T07:34:59;2.72;;;0.63;;
76292;SDS011;67256;51.154;4.164;2023-07-20T07:37:25;0.95;;;0.45;;
76292;SDS011;67256;51.154;4.164;2023-07-20T07:39:51;1.80;;;0.70;;
76292;SDS011;67256;51.154;4.164;2023-07-20T07:42:16;1.08;;;0.77;;
76292;SDS011;67256;51.154;4.164;2023-07-20T07:44:43;1.08;;;0.50;;
76292;SDS011;67256;51.154;4.164;2023-07-20T07:47:09;2.90;;;0.80;;
76292;SDS011;67256;51.154;4.164;2023-07-20T07:49:35;1.27;;;0.57;;
76292;SDS011;67256;51.154;4.164;2023-07-20T07:52:01;0.50;;;0.25;;
76292;SDS011;67256;51.154;4.164;2023-07-20T07:54:29;1.30;;;0.50;;
76292;SDS011;67256;51.154;4.164;2023-07-20T07:56:55;1.20;;;0.40;;
76292;SDS011;67256;51.154;4.164;2023-07-20T07:59:21;2.60;;;0.30;;
76292;SDS011;67256;51.154;4.164;2023-07-20T08:01:47;0.88;;;0.45;;
76292;SDS011;67256;51.154;4.164;2023-07-20T08:04:13;1.50;;;0.50;;
76292;SDS011;67256;51.154;4.164;2023-07-20T08:06:39;0.65;;;0.30;;
76292;SDS011;67256;51.154;4.164;2023-07-20T08:09:05;0.52;;;0.30;;
76292;SDS011;67256;51.154;4.164;2023-07-20T08:11:30;0.73;;;0.30;;
76292;SDS011;67256;51.154;4.164;2023-07-20T08:13:59;0.80;;;0.40;;
76292;SDS011;67256;51.154;4.164;2023-07-20T08:16:25;2.03;;;0.90;;
76292;SDS011;67256;51.154;4.164;2023-07-20T08:18:51;0.57;;;0.47;;
76292;SDS011;67256;51.154;4.164;2023-07-20T08:21:17;0.45;;;0.40;;
76292;SDS011;67256;51.154;4.164;2023-07-20T08:23:42;0.60;;;0.30;;
76292;SDS011;67256;51.154;4.164;2023-07-20T08:26:08;2.83;;;0.32;;
76292;SDS011;67256;51.154;4.164;2023-07-20T08:28:34;0.65;;;0.35;;
76292;SDS011;67256;51.154;4.164;2023-07-20T08:31:00;3.53;;;0.50;;
76292;SDS011;67256;51.154;4.164;2023-07-20T08:33:26;0.80;;;0.30;;
76292;SDS011;67256;51.154;4.164;2023-07-20T08:35:54;1.83;;;0.57;;
76292;SDS011;67256;51.154;4.164;2023-07-20T08:38:21;1.02;;;0.40;;
76292;SDS011;67256;51.154;4.164;2023-07-20T08:40:47;0.50;;;0.38;;
76292;SDS011;67256;51.154;4.164;2023-07-20T08:43:13;1.60;;;0.30;;
76292;SDS011;67256;51.154;4.164;2023-07-20T08:45:44;1.75;;;0.35;;
76292;SDS011;67256;51.154;4.164;2023-07-20T08:48:10;1.13;;;0.38;;
76292;SDS011;67256;51.154;4.164;2023-07-20T08:50:37;1.70;;;0.40;;
76292;SDS011;67256;51.154;4.164;2023-07-20T08:53:03;0.38;;;0.20;;
76292;SDS011;67256;51.154;4.164;2023-07-20T08:55:30;1.80;;;0.30;;
76292;SDS011;67256;51.154;4.164;2023-07-20T08:57:57;0.65;;;0.40;;
76292;SDS011;67256;51.154;4.164;2023-07-20T09:00:24;0.60;;;0.30;;
76292;SDS011;67256;51.154;4.164;2023-07-20T09:02:54;1.25;;;0.35;;
76292;SDS011;67256;51.154;4.164;2023-07-20T09:05:22;0.20;;;0.10;;
76292;SDS011;67256;51.154;4.164;2023-07-20T09:07:48;1.77;;;0.35;;
76292;SDS011;67256;51.154;4.164;2023-07-20T09:10:14;1.00;;;0.30;;
76292;SDS011;67256;51.154;4.164;2023-07-20T09:12:41;6.60;;;0.40;;
76292;SDS011;67256;51.154;4.164;2023-07-20T09:15:09;2.67;;;0.40;;
76292;SDS011;67256;51.154;4.164;2023-07-20T09:17:36;2.55;;;0.50;;
76292;SDS011;67256;51.154;4.164;2023-07-20T09:20:06;0.50;;;0.20;;
76292;SDS011;67256;51.154;4.164;2023-07-20T09:22:35;1.77;;;0.22;;
76292;SDS011;67256;51.154;4.164;2023-07-20T09:25:05;1.10;;;0.30;;
76292;SDS011;67256;51.154;4.164;2023-07-20T09:27:36;0.70;;;0.57;;
76292;SDS011;67256;51.154;4.164;2023-07-20T09:30:03;2.35;;;0.60;;
76292;SDS011;67256;51.154;4.164;2023-07-20T09:32:30;0.57;;;0.20;;
76292;SDS011;67256;51.154;4.164;2023-07-20T09:34:56;1.58;;;0.40;;
76292;SDS011;67256;51.154;4.164;2023-07-20T09:37:22;1.33;;;0.30;;
76292;SDS011;67256;51.154;4.164;2023-07-20T09:39:51;1.05;;;0.30;;
76292;SDS011;67256;51.154;4.164;2023-07-20T09:42:18;0.95;;;0.40;;
76292;SDS011;67256;51.154;4.164;2023-07-20T09:44:45;1.15;;;0.60;;
76292;SDS011;67256;51.154;4.164;2023-07-20T09:47:11;1.75;;;0.40;;
76292;SDS011;67256;51.154;4.164;2023-07-20T09:49:40;0.93;;;0.50;;
76292;SDS011;67256;51.154;4.164;2023-07-20T09:52:06;2.92;;;0.40;;
76292;SDS011;67256;51.154;4.164;2023-07-20T09:54:39;0.60;;;0.50;;
76292;SDS011;67256;51.154;4.164;2023-07-20T09:57:09;0.98;;;0.50;;
76292;SDS011;67256;51.154;4.164;2023-07-20T09:59:37;0.88;;;0.38;;
76292;SDS011;67256;51.154;4.164;2023-07-20T10:02:05;0.98;;;0.50;;
76292;SDS011;67256;51.154;4.164;2023-07-20T10:04:41;0.93;;;0.50;;
76292;SDS011;67256;51.154;4.164;2023-07-20T10:07:10;3.03;;;0.60;;
76292;SDS011;67256;51.154;4.164;2023-07-20T10:09:37;1.42;;;0.57;;
76292;SDS011;67256;51.154;4.164;2023-07-20T10:12:06;0.93;;;0.50;;
76292;SDS011;67256;51.154;4.164;2023-07-20T10:14:33;3.13;;;0.40;;
76292;SDS011;67256;51.154;4.164;2023-07-20T10:17:05;2.67;;;0.50;;
76292;SDS011;67256;51.154;4.164;2023-07-20T10:22:10;1.05;;;0.50;;
76292;SDS011;67256;51.154;4.164;2023-07-20T10:24:39;3.72;;;0.75;;
76292;SDS011;67256;51.154;4.164;2023-07-20T10:27:10;2.00;;;1.05;;
76292;SDS011;67256;51.154;4.164;2023-07-20T10:29:36;1.15;;;0.95;;
76292;SDS011;67256;51.154;4.164;2023-07-20T10:32:03;2.22;;;1.30;;
76292;SDS011;67256;51.154;4.164;2023-07-20T10:34:29;1.35;;;1.13;;
76292;SDS011;67256;51.154;4.164;2023-07-20T10:36:55;2.47;;;1.35;;
76292;SDS011;67256;51.154;4.164;2023-07-20T10:39:27;3.30;;;2.28;;
76292;SDS011;67256;51.154;4.164;2023-07-20T10:42:08;2.05;;;1.65;;
76292;SDS011;67256;51.154;4.164;2023-07-20T10:44:38;3.70;;;2.13;;
76292;SDS011;67256;51.154;4.164;2023-07-20T10:47:10;3.63;;;2.20;;
76292;SDS011;67256;51.154;4.164;2023-07-20T10:52:26;2.53;;;1.73;;
76292;SDS011;67256;51.154;4.164;2023-07-20T10:55:15;2.33;;;1.85;;
76292;SDS011;67256;51.154;4.164;2023-07-20T10:57:41;2.47;;;2.25;;
76292;SDS011;67256;51.154;4.164;2023-07-20T11:00:09;3.03;;;1.90;;
76292;SDS011;67256;51.154;4.164;2023-07-20T11:08:12;3.22;;;2.30;;
76292;SDS011;67256;51.154;4.164;2023-07-20T11:10:38;3.60;;;2.63;;
76292;SDS011;67256;51.154;4.164;2023-07-20T11:15:53;2.38;;;2.17;;
76292;SDS011;67256;51.154;4.164;2023-07-20T11:18:29;5.45;;;2.28;;
76292;SDS011;67256;51.154;4.164;2023-07-20T11:20:56;2.90;;;2.00;;
76292;SDS011;67256;51.154;4.164;2023-07-20T11:23:21;2.83;;;2.53;;
76292;SDS011;67256;51.154;4.164;2023-07-20T11:25:48;3.38;;;1.92;;
76292;SDS011;67256;51.154;4.164;2023-07-20T11:28:14;3.35;;;1.90;;
76292;SDS011;67256;51.154;4.164;2023-07-20T11:30:40;2.17;;;1.80;;
76292;SDS011;67256;51.154;4.164;2023-07-20T11:33:09;3.33;;;1.98;;
76292;SDS011;67256;51.154;4.164;2023-07-20T11:35:36;2.50;;;1.80;;
76292;SDS011;67256;51.154;4.164;2023-07-20T11:38:07;4.35;;;1.83;;
76292;SDS011;67256;51.154;4.164;2023-07-20T11:40:33;3.38;;;1.88;;
76292;SDS011;67256;51.154;4.164;2023-07-20T11:42:59;2.10;;;1.80;;
76292;SDS011;67256;51.154;4.164;2023-07-20T11:45:25;4.90;;;2.10;;
76292;SDS011;67256;51.154;4.164;2023-07-20T11:47:52;2.95;;;2.13;;
76292;SDS011;67256;51.154;4.164;2023-07-20T11:50:18;4.60;;;2.20;;
76292;SDS011;67256;51.154;4.164;2023-07-20T11:52:44;2.20;;;1.90;;
76292;SDS011;67256;51.154;4.164;2023-07-20T11:55:10;2.58;;;2.30;;
76292;SDS011;67256;51.154;4.164;2023-07-20T11:57:37;2.72;;;2.40;;
76292;SDS011;67256;51.154;4.164;2023-07-20T12:00:03;2.47;;;1.88;;
76292;SDS011;67256;51.154;4.164;2023-07-20T12:02:35;2.40;;;1.90;;
76292;SDS011;67256;51.154;4.164;2023-07-20T12:05:04;3.73;;;2.17;;
76292;SDS011;67256;51.154;4.164;2023-07-20T12:07:34;2.92;;;1.85;;
76292;SDS011;67256;51.154;4.164;2023-07-20T12:10:08;2.67;;;2.20;;
76292;SDS011;67256;51.154;4.164;2023-07-20T12:12:38;2.42;;;2.20;;
76292;SDS011;67256;51.154;4.164;2023-07-20T12:17:46;3.25;;;2.50;;
76292;SDS011;67256;51.154;4.164;2023-07-20T12:25:33;2.35;;;1.90;;
76292;SDS011;67256;51.154;4.164;2023-07-20T12:28:04;2.50;;;1.90;;
76292;SDS011;67256;51.154;4.164;2023-07-20T12:30:30;4.17;;;2.33;;
76292;SDS011;67256;51.154;4.164;2023-07-20T12:32:56;2.67;;;1.90;;
76292;SDS011;67256;51.154;4.164;2023-07-20T12:35:22;6.88;;;2.55;;
76292;SDS011;67256;51.154;4.164;2023-07-20T12:37:47;4.72;;;3.13;;
76292;SDS011;67256;51.154;4.164;2023-07-20T12:40:14;2.80;;;2.30;;
76292;SDS011;67256;51.154;4.164;2023-07-20T12:42:39;4.40;;;2.50;;
76292;SDS011;67256;51.154;4.164;2023-07-20T12:45:05;4.03;;;2.20;;
76292;SDS011;67256;51.154;4.164;2023-07-20T12:47:31;4.43;;;2.13;;
76292;SDS011;67256;51.154;4.164;2023-07-20T12:49:57;5.22;;;2.38;;
76292;SDS011;67256;51.154;4.164;2023-07-20T12:52:23;5.25;;;2.40;;
76292;SDS011;67256;51.154;4.164;2023-07-20T12:54:49;3.42;;;2.10;;
76292;SDS011;67256;51.154;4.164;2023-07-20T12:57:15;4.97;;;2.28;;
76292;SDS011;67256;51.154;4.164;2023-07-20T12:59:40;5.53;;;2.53;;
76292;SDS011;67256;51.154;4.164;2023-07-20T13:02:06;4.20;;;2.67;;
76292;SDS011;67256;51.154;4.164;2023-07-20T13:04:32;2.83;;;2.33;;
76292;SDS011;67256;51.154;4.164;2023-07-20T13:06:58;3.88;;;2.30;;
76292;SDS011;67256;51.154;4.164;2023-07-20T13:09:24;2.95;;;2.33;;
76292;SDS011;67256;51.154;4.164;2023-07-20T13:11:50;4.53;;;2.60;;
76292;SDS011;67256;51.154;4.164;2023-07-20T13:14:17;4.60;;;2.90;;
76292;SDS011;67256;51.154;4.164;2023-07-20T13:16:43;3.97;;;2.20;;
76292;SDS011;67256;51.154;4.164;2023-07-20T13:19:08;2.22;;;1.90;;
76292;SDS011;67256;51.154;4.164;2023-07-20T13:21:34;4.18;;;2.13;;
76292;SDS011;67256;51.154;4.164;2023-07-20T13:24:00;3.15;;;2.10;;
76292;SDS011;67256;51.154;4.164;2023-07-20T13:26:26;2.55;;;2.17;;
76292;SDS011;67256;51.154;4.164;2023-07-20T13:28:52;4.57;;;2.42;;
76292;SDS011;67256;51.154;4.164;2023-07-20T13:31:17;3.00;;;2.25;;
76292;SDS011;67256;51.154;4.164;2023-07-20T13:33:43;4.20;;;2.28;;
76292;SDS011;67256;51.154;4.164;2023-07-20T13:36:09;3.50;;;2.30;;
76292;SDS011;67256;51.154;4.164;2023-07-20T13:38:34;3.15;;;2.20;;
76292;SDS011;67256;51.154;4.164;2023-07-20T13:41:00;2.88;;;2.00;;
76292;SDS011;67256;51.154;4.164;2023-07-20T13:43:26;5.47;;;2.40;;
76292;SDS011;67256;51.154;4.164;2023-07-20T13:45:51;2.92;;;2.00;;
76292;SDS011;67256;51.154;4.164;2023-07-20T13:48:17;4.18;;;2.20;;
76292;SDS011;67256;51.154;4.164;2023-07-20T13:50:44;4.05;;;1.90;;
76292;SDS011;67256;51.154;4.164;2023-07-20T13:53:11;4.07;;;1.85;;
76292;SDS011;67256;51.154;4.164;2023-07-20T13:55:37;5.25;;;1.95;;
76292;SDS011;67256;51.154;4.164;2023-07-20T13:58:03;2.75;;;1.52;;
76292;SDS011;67256;51.154;4.164;2023-07-20T14:00:29;2.58;;;1.45;;
76292;SDS011;67256;51.154;4.164;2023-07-20T14:02:58;3.80;;;1.70;;
76292;SDS011;67256;51.154;4.164;2023-07-20T14:05:24;4.40;;;1.92;;
76292;SDS011;67256;51.154;4.164;2023-07-20T14:07:50;5.55;;;2.00;;
76292;SDS011;67256;51.154;4.164;2023-07-20T14:10:16;3.33;;;1.83;;
76292;SDS011;67256;51.154;4.164;2023-07-20T14:12:42;3.10;;;2.22;;
76292;SDS011;67256;51.154;4.164;2023-07-20T14:15:09;5.80;;;2.33;;
76292;SDS011;67256;51.154;4.164;2023-07-20T14:17:35;2.67;;;1.98;;
76292;SDS011;67256;51.154;4.164;2023-07-20T14:20:01;3.28;;;2.10;;
76292;SDS011;67256;51.154;4.164;2023-07-20T14:22:30;7.72;;;2.60;;
76292;SDS011;67256;51.154;4.164;2023-07-20T14:24:56;5.45;;;2.47;;
76292;SDS011;67256;51.154;4.164;2023-07-20T14:27:22;5.03;;;1.70;;
76292;SDS011;67256;51.154;4.164;2023-07-20T14:29:48;6.25;;;2.03;;
76292;SDS011;67256;51.154;4.164;2023-07-20T14:32:13;2.30;;;1.80;;
76292;SDS011;67256;51.154;4.164;2023-07-20T14:34:39;4.35;;;2.00;;
76292;SDS011;67256;51.154;4.164;2023-07-20T14:37:06;7.82;;;2.25;;
76292;SDS011;67256;51.154;4.164;2023-07-20T14:39:31;3.70;;;1.40;;
76292;SDS011;67256;51.154;4.164;2023-07-20T14:41:57;5.32;;;1.42;;
76292;SDS011;67256;51.154;4.164;2023-07-20T14:44:23;2.95;;;1.00;;
76292;SDS011;67256;51.154;4.164;2023-07-20T14:46:49;3.92;;;1.10;;
76292;SDS011;67256;51.154;4.164;2023-07-20T14:49:16;4.70;;;0.60;;
76292;SDS011;67256;51.154;4.164;2023-07-20T14:51:43;4.28;;;0.77;;
76292;SDS011;67256;51.154;4.164;2023-07-20T14:54:12;0.82;;;0.57;;
76292;SDS011;67256;51.154;4.164;2023-07-20T14:56:38;4.82;;;0.93;;
76292;SDS011;67256;51.154;4.164;2023-07-20T14:59:05;2.38;;;0.75;;
76292;SDS011;67256;51.154;4.164;2023-07-20T15:01:31;1.80;;;0.80;;
76292;SDS011;67256;51.154;4.164;2023-07-20T15:03:57;3.13;;;0.80;;
76292;SDS011;67256;51.154;4.164;2023-07-20T15:06:26;2.97;;;1.15;;
76292;SDS011;67256;51.154;4.164;2023-07-20T15:08:51;5.32;;;1.13;;
76292;SDS011;67256;51.154;4.164;2023-07-20T15:11:17;2.88;;;1.15;;
76292;SDS011;67256;51.154;4.164;2023-07-20T15:13:43;4.90;;;1.23;;
76292;SDS011;67256;51.154;4.164;2023-07-20T15:16:08;4.68;;;1.33;;